Time;durP1;ratioP1;P1;durP2;ratioP2;P2;SDS_P1;SDS_P2;PMS_P1;PMS_P2;Temp;Humidity;BMP_temperature;BMP_pressure;BME280_temperature;BME280_humidity;BME280_pressure;Samples;Min_cycle;Max_cycle;Signal;HPM_P1;HPM_P2
2023/05/19 00:01:16;;;;;;;0.70;0.60;;;;;;;;;;5023809;28;20968;-75
2023/05/19 00:03:52;;;;;;;0.70;0.60;;;;;;;;;;5026968;28;20491;-73
2023/05/19 00:06:23;;;;;;;0.70;0.60;;;;;;;;;;5019637;28;20431;-74
2023/05/19 00:08:54;;;;;;;0.70;0.60;;;;;;;;;;5014117;28;20440;-73
2023/05/19 00:11:21;;;;;;;0.70;0.60;;;;;;;;;;5022051;28;20517;-74
2023/05/19 00:13:49;;;;;;;0.70;0.60;;;;;;;;;;5020480;28;20572;-73
2023/05/19 00:16:16;;;;;;;0.70;0.60;;;;;;;;;;5023440;28;20467;-73
2023/05/19 00:18:43;;;;;;;0.70;0.60;;;;;;;;;;5020387;28;20443;-72
2023/05/19 00:21:12;;;;;;;1.43;1.33;;;;;;;;;;5019964;28;20440;-74
2023/05/19 00:23:38;;;;;;;0.70;0.63;;;;;;;;;;5020732;28;20452;-74
2023/05/19 00:26:05;;;;;;;0.70;0.60;;;;;;;;;;5023263;28;20440;-74
2023/05/19 00:28:32;;;;;;;0.70;0.60;;;;;;;;;;5024260;28;20521;-73
2023/05/19 00:31:00;;;;;;;0.70;0.70;;;;;;;;;;5035838;28;20485;-74
2023/05/19 00:33:27;;;;;;;0.70;0.60;;;;;;;;;;5025226;28;20998;-73
2023/05/19 00:35:54;;;;;;;0.70;0.60;;;;;;;;;;5021643;28;20503;-72
2023/05/19 00:38:22;;;;;;;0.70;0.60;;;;;;;;;;5025290;28;20473;-74
2023/05/19 00:40:50;;;;;;;0.70;0.60;;;;;;;;;;5017109;28;20992;-73
2023/05/19 00:43:17;;;;;;;0.70;0.70;;;;;;;;;;5024594;28;20448;-73
2023/05/19 00:45:44;;;;;;;0.70;0.60;;;;;;;;;;5014192;28;21232;-73
2023/05/19 00:48:11;;;;;;;0.70;0.60;;;;;;;;;;5028922;28;20772;-73
2023/05/19 00:50:38;;;;;;;0.70;0.70;;;;;;;;;;5023799;28;20626;-75
2023/05/19 00:53:05;;;;;;;0.80;0.70;;;;;;;;;;5023722;28;20471;-72
2023/05/19 00:55:35;;;;;;;0.70;0.60;;;;;;;;;;5029027;28;20273;-73
2023/05/19 00:58:03;;;;;;;0.80;0.80;;;;;;;;;;5021050;28;20533;-73
2023/05/19 01:00:30;;;;;;;0.80;0.70;;;;;;;;;;5015089;28;20502;-73
2023/05/19 01:02:57;;;;;;;0.77;0.70;;;;;;;;;;5046661;28;20207;-72
2023/05/19 01:05:25;;;;;;;0.70;0.60;;;;;;;;;;5013130;28;20443;-72
2023/05/19 01:07:54;;;;;;;0.70;0.60;;;;;;;;;;5020081;28;20466;-74
2023/05/19 01:10:21;;;;;;;0.80;0.70;;;;;;;;;;5021588;28;20480;-74
2023/05/19 01:12:49;;;;;;;0.70;0.70;;;;;;;;;;5014710;28;20213;-73
2023/05/19 01:15:16;;;;;;;0.70;0.60;;;;;;;;;;5023658;28;20228;-74
2023/05/19 01:17:48;;;;;;;0.70;0.70;;;;;;;;;;5018194;28;20194;-73
2023/05/19 01:20:18;;;;;;;0.70;0.70;;;;;;;;;;5028755;28;20454;-73
2023/05/19 01:23:03;;;;;;;0.70;0.60;;;;;;;;;;5020104;28;20533;-72
2023/05/19 01:25:49;;;;;;;1.80;1.70;;;;;;;;;;5017521;28;20456;-73
2023/05/19 01:28:35;;;;;;;0.70;0.70;;;;;;;;;;5019618;28;20196;-74
2023/05/19 01:31:06;;;;;;;0.70;0.60;;;;;;;;;;5012930;28;20223;-75
2023/05/19 01:33:33;;;;;;;0.80;0.70;;;;;;;;;;5028385;28;20539;-75
2023/05/19 01:36:02;;;;;;;0.70;0.70;;;;;;;;;;5023648;28;20233;-73
2023/05/19 01:38:29;;;;;;;0.70;0.60;;;;;;;;;;5029485;28;20651;-74
2023/05/19 01:40:56;;;;;;;0.70;0.63;;;;;;;;;;5023172;28;20218;-73
2023/05/19 01:43:23;;;;;;;0.80;0.77;;;;;;;;;;5019117;28;20226;-73
2023/05/19 01:45:51;;;;;;;0.70;0.70;;;;;;;;;;5014217;28;21070;-74
2023/05/19 01:48:21;;;;;;;0.70;0.68;;;;;;;;;;5012504;28;20193;-72
2023/05/19 01:50:48;;;;;;;0.70;0.60;;;;;;;;;;5025909;28;20313;-74
2023/05/19 01:53:15;;;;;;;0.70;0.70;;;;;;;;;;5020316;28;20309;-74
2023/05/19 01:55:43;;;;;;;0.70;0.60;;;;;;;;;;5003512;28;20271;-73
2023/05/19 01:58:15;;;;;;;0.70;0.60;;;;;;;;;;5024799;28;20295;-73
2023/05/19 02:00:48;;;;;;;0.75;0.65;;;;;;;;;;5021777;28;20234;-72
2023/05/19 02:03:20;;;;;;;0.70;0.60;;;;;;;;;;5010216;28;20206;-74
2023/05/19 02:05:53;;;;;;;0.70;0.60;;;;;;;;;;5052443;28;20298;-73
2023/05/19 02:08:23;;;;;;;0.70;0.70;;;;;;;;;;5023016;28;20229;-74
2023/05/19 02:10:55;;;;;;;0.70;0.70;;;;;;;;;;5027150;28;20203;-75
2023/05/19 02:13:23;;;;;;;0.80;0.70;;;;;;;;;;5028145;28;20218;-74
2023/05/19 02:15:52;;;;;;;0.70;0.60;;;;;;;;;;5020700;28;20254;-73
2023/05/19 02:18:20;;;;;;;0.70;0.60;;;;;;;;;;5028298;28;20278;-73
2023/05/19 02:20:51;;;;;;;0.70;0.60;;;;;;;;;;5026029;28;20205;-73
2023/05/19 02:23:17;;;;;;;0.70;0.60;;;;;;;;;;5021331;28;20218;-74
2023/05/19 02:25:44;;;;;;;0.70;0.70;;;;;;;;;;5028159;28;20242;-73
2023/05/19 02:28:11;;;;;;;0.77;0.70;;;;;;;;;;5021226;28;20207;-74
2023/05/19 02:30:38;;;;;;;0.70;0.60;;;;;;;;;;5010767;28;20243;-74
2023/05/19 02:33:05;;;;;;;0.70;0.70;;;;;;;;;;5024048;28;20202;-73
2023/05/19 02:35:32;;;;;;;0.70;0.60;;;;;;;;;;5023290;28;20206;-72
2023/05/19 02:38:00;;;;;;;1.70;1.60;;;;;;;;;;5014963;28;20215;-73
2023/05/19 02:40:27;;;;;;;0.70;0.70;;;;;;;;;;5025063;28;20202;-72
2023/05/19 02:42:54;;;;;;;0.70;0.60;;;;;;;;;;5015486;28;20202;-73
2023/05/19 02:45:21;;;;;;;0.70;0.70;;;;;;;;;;5027320;28;20210;-74
2023/05/19 02:47:48;;;;;;;0.80;0.80;;;;;;;;;;5027035;28;20216;-73
2023/05/19 02:50:15;;;;;;;0.70;0.65;;;;;;;;;;5011688;28;20758;-74
2023/05/19 02:52:42;;;;;;;0.70;0.60;;;;;;;;;;5017668;28;20747;-73
2023/05/19 02:55:15;;;;;;;0.70;0.65;;;;;;;;;;5012268;28;20215;-72
2023/05/19 02:57:42;;;;;;;0.80;0.80;;;;;;;;;;5007313;28;20248;-72
2023/05/19 03:00:10;;;;;;;0.80;0.70;;;;;;;;;;5010596;28;20194;-73
2023/05/19 03:02:38;;;;;;;0.70;0.60;;;;;;;;;;5020883;28;20202;-74
2023/05/19 03:05:07;;;;;;;0.70;0.70;;;;;;;;;;5015262;28;20202;-73
2023/05/19 03:07:33;;;;;;;0.70;0.70;;;;;;;;;;5020293;28;20285;-72
2023/05/19 03:10:02;;;;;;;0.80;0.77;;;;;;;;;;5021583;28;20238;-72
2023/05/19 03:12:32;;;;;;;0.75;0.70;;;;;;;;;;5009128;28;20951;-72
2023/05/19 03:14:59;;;;;;;0.70;0.60;;;;;;;;;;5018452;28;21066;-73
2023/05/19 03:17:32;;;;;;;0.70;0.70;;;;;;;;;;5049050;28;20198;-73
2023/05/19 03:20:00;;;;;;;1.30;1.20;;;;;;;;;;5023322;28;20195;-73
2023/05/19 03:22:27;;;;;;;0.80;0.70;;;;;;;;;;5017150;28;20305;-73
2023/05/19 03:24:54;;;;;;;0.70;0.70;;;;;;;;;;5031286;28;20670;-73
2023/05/19 03:27:20;;;;;;;0.70;0.70;;;;;;;;;;5023794;28;20202;-74
2023/05/19 03:29:49;;;;;;;0.70;0.60;;;;;;;;;;5026045;28;20297;-74
2023/05/19 03:32:16;;;;;;;0.70;0.70;;;;;;;;;;5015092;28;20206;-73
2023/05/19 03:34:44;;;;;;;0.70;0.70;;;;;;;;;;5013625;28;20725;-72
2023/05/19 03:37:11;;;;;;;0.70;0.70;;;;;;;;;;5055234;28;20269;-73
2023/05/19 03:39:39;;;;;;;0.70;0.70;;;;;;;;;;5027766;28;20217;-73
2023/05/19 03:42:06;;;;;;;0.70;0.60;;;;;;;;;;5029710;28;20211;-73
2023/05/19 03:44:34;;;;;;;0.70;0.70;;;;;;;;;;5010620;28;20285;-73
2023/05/19 03:47:03;;;;;;;0.80;0.77;;;;;;;;;;5029202;28;20210;-74
2023/05/19 03:49:45;;;;;;;0.70;0.60;;;;;;;;;;5024369;28;20296;-74
2023/05/19 03:52:32;;;;;;;0.70;0.70;;;;;;;;;;5021773;28;20246;-73
2023/05/19 03:55:10;;;;;;;0.70;0.60;;;;;;;;;;5024255;28;20218;-72
2023/05/19 03:57:38;;;;;;;0.75;0.70;;;;;;;;;;5029328;28;20249;-72
2023/05/19 04:00:05;;;;;;;0.70;0.70;;;;;;;;;;5026325;28;20279;-72
2023/05/19 04:02:39;;;;;;;0.70;0.60;;;;;;;;;;5025743;28;20265;-73
2023/05/19 04:05:07;;;;;;;0.70;0.65;;;;;;;;;;5026654;28;20204;-72
2023/05/19 04:07:35;;;;;;;0.80;0.73;;;;;;;;;;5018763;28;20245;-74
2023/05/19 04:10:04;;;;;;;0.70;0.70;;;;;;;;;;5019509;28;20662;-73
2023/05/19 04:12:31;;;;;;;0.80;0.80;;;;;;;;;;5027385;28;20297;-74
2023/05/19 04:14:58;;;;;;;0.70;0.60;;;;;;;;;;5023772;28;20242;-75
2023/05/19 04:17:26;;;;;;;0.70;0.60;;;;;;;;;;5023966;28;20272;-74
2023/05/19 04:19:55;;;;;;;0.70;0.60;;;;;;;;;;5027716;28;20207;-73
2023/05/19 04:22:21;;;;;;;0.70;0.60;;;;;;;;;;5025092;28;20767;-73
2023/05/19 04:24:50;;;;;;;0.70;0.70;;;;;;;;;;5024451;28;20205;-73
2023/05/19 04:27:17;;;;;;;0.70;0.60;;;;;;;;;;5023580;28;20306;-75
2023/05/19 04:29:47;;;;;;;3.05;2.55;;;;;;;;;;5012230;28;20214;-74
2023/05/19 04:32:16;;;;;;;0.70;0.60;;;;;;;;;;5022172;28;20195;-73
2023/05/19 04:34:44;;;;;;;0.70;0.60;;;;;;;;;;5021786;28;20233;-73
2023/05/19 04:37:19;;;;;;;0.70;0.60;;;;;;;;;;5029127;28;20215;-74
2023/05/19 04:39:47;;;;;;;0.70;0.60;;;;;;;;;;5020108;28;20249;-74
2023/05/19 04:42:18;;;;;;;0.70;0.70;;;;;;;;;;5018091;28;20294;-75
2023/05/19 04:44:45;;;;;;;0.70;0.60;;;;;;;;;;5022237;28;20229;-73
2023/05/19 04:47:13;;;;;;;0.70;0.60;;;;;;;;;;5027128;28;20214;-73
2023/05/19 04:49:40;;;;;;;0.70;0.70;;;;;;;;;;5019502;28;20234;-73
2023/05/19 04:52:11;;;;;;;0.70;0.60;;;;;;;;;;5016703;28;20214;-73
2023/05/19 04:54:40;;;;;;;0.70;0.68;;;;;;;;;;5053059;28;20206;-74
2023/05/19 04:57:11;;;;;;;0.70;0.60;;;;;;;;;;5026695;28;20287;-73
2023/05/19 04:59:38;;;;;;;0.70;0.70;;;;;;;;;;5025244;28;20217;-73
2023/05/19 05:02:07;;;;;;;0.70;0.60;;;;;;;;;;5051183;28;20306;-73
2023/05/19 05:04:39;;;;;;;4.43;1.60;;;;;;;;;;5050915;28;20211;-73
2023/05/19 05:07:06;;;;;;;0.70;0.70;;;;;;;;;;5023379;28;20250;-74
2023/05/19 05:09:33;;;;;;;0.70;0.60;;;;;;;;;;5028786;28;20256;-72
2023/05/19 05:12:06;;;;;;;0.80;0.70;;;;;;;;;;5023734;28;20729;-73
2023/05/19 05:14:34;;;;;;;0.70;0.60;;;;;;;;;;5036177;28;20284;-73
2023/05/19 05:17:02;;;;;;;0.70;0.60;;;;;;;;;;5026815;28;20595;-72
2023/05/19 05:19:30;;;;;;;0.70;0.60;;;;;;;;;;5029050;28;20290;-73
2023/05/19 05:21:58;;;;;;;0.70;0.60;;;;;;;;;;5016665;28;20257;-73
2023/05/19 05:24:26;;;;;;;0.70;0.70;;;;;;;;;;5025779;28;20489;-73
2023/05/19 05:26:57;;;;;;;0.70;0.60;;;;;;;;;;5026110;28;20662;-72
2023/05/19 05:29:26;;;;;;;0.70;0.67;;;;;;;;;;5048319;28;20575;-73
2023/05/19 05:31:54;;;;;;;0.70;0.60;;;;;;;;;;5024622;28;21014;-73
2023/05/19 05:34:22;;;;;;;0.70;0.60;;;;;;;;;;5026231;28;20478;-74
2023/05/19 05:36:49;;;;;;;0.70;0.60;;;;;;;;;;5023085;28;21023;-73
2023/05/19 05:39:17;;;;;;;0.70;0.70;;;;;;;;;;5010894;28;20447;-73
2023/05/19 05:41:44;;;;;;;0.70;0.60;;;;;;;;;;5052890;28;21036;-74
2023/05/19 05:44:11;;;;;;;0.70;0.70;;;;;;;;;;5023412;28;20472;-74
2023/05/19 05:46:42;;;;;;;0.70;0.60;;;;;;;;;;5049820;28;20496;-74
2023/05/19 05:49:11;;;;;;;0.70;0.70;;;;;;;;;;5016405;28;20453;-73
2023/05/19 05:51:41;;;;;;;0.70;0.60;;;;;;;;;;5056327;28;20474;-72
2023/05/19 05:54:21;;;;;;;0.70;0.60;;;;;;;;;;5020449;28;20821;-74
2023/05/19 05:56:49;;;;;;;0.70;0.60;;;;;;;;;;5013430;28;20470;-73
2023/05/19 05:59:16;;;;;;;0.70;0.70;;;;;;;;;;5020768;28;20542;-74
2023/05/19 06:01:45;;;;;;;0.70;0.63;;;;;;;;;;5051122;28;20465;-73
2023/05/19 06:04:15;;;;;;;0.70;0.60;;;;;;;;;;5022556;28;20478;-73
2023/05/19 06:06:42;;;;;;;0.70;0.60;;;;;;;;;;5023348;28;20445;-74
2023/05/19 06:09:11;;;;;;;0.70;0.60;;;;;;;;;;5022366;28;20449;-73
2023/05/19 06:11:38;;;;;;;0.70;0.60;;;;;;;;;;5027282;28;20996;-73
2023/05/19 06:14:06;;;;;;;0.70;0.70;;;;;;;;;;5052851;28;20453;-73
2023/05/19 06:16:54;;;;;;;0.70;0.70;;;;;;;;;;5020231;28;20473;-73
2023/05/19 06:19:23;;;;;;;0.70;0.60;;;;;;;;;;5021237;28;20442;-74
2023/05/19 06:21:51;;;;;;;0.70;0.70;;;;;;;;;;5022738;28;20456;-73
2023/05/19 06:24:18;;;;;;;0.70;0.70;;;;;;;;;;5019623;28;20817;-73
2023/05/19 06:26:46;;;;;;;0.70;0.70;;;;;;;;;;5025630;28;20445;-72
2023/05/19 06:29:13;;;;;;;0.70;0.60;;;;;;;;;;5018852;28;20475;-72
2023/05/19 06:31:41;;;;;;;2.50;1.57;;;;;;;;;;5027063;28;20531;-73
2023/05/19 06:34:16;;;;;;;0.70;0.60;;;;;;;;;;5011716;28;20461;-72
2023/05/19 06:36:45;;;;;;;0.70;0.60;;;;;;;;;;5051972;28;20485;-72
2023/05/19 06:39:12;;;;;;;0.70;0.63;;;;;;;;;;5010782;28;20985;-72
2023/05/19 06:41:39;;;;;;;0.70;0.60;;;;;;;;;;5024537;28;20444;-72
2023/05/19 06:44:09;;;;;;;0.70;0.60;;;;;;;;;;5021162;28;20514;-73
2023/05/19 06:46:38;;;;;;;0.70;0.60;;;;;;;;;;5024347;28;20499;-73
2023/05/19 06:49:05;;;;;;;0.70;0.70;;;;;;;;;;5022378;28;20465;-73
2023/05/19 06:51:38;;;;;;;0.70;0.60;;;;;;;;;;5038822;28;20492;-73
2023/05/19 06:54:05;;;;;;;0.70;0.60;;;;;;;;;;5026107;28;20521;-75
2023/05/19 06:56:33;;;;;;;0.70;0.70;;;;;;;;;;5020356;28;20460;-72
2023/05/19 06:59:01;;;;;;;0.70;0.70;;;;;;;;;;5026789;28;20571;-74
2023/05/19 07:01:33;;;;;;;0.70;0.70;;;;;;;;;;5014771;28;20450;-72
2023/05/19 07:04:00;;;;;;;0.70;0.70;;;;;;;;;;5020510;28;20463;-72
2023/05/19 07:06:28;;;;;;;1.03;0.93;;;;;;;;;;5025591;28;20496;-74
2023/05/19 07:08:58;;;;;;;0.70;0.70;;;;;;;;;;5023540;28;20794;-74
2023/05/19 07:11:26;;;;;;;0.70;0.60;;;;;;;;;;5030946;28;20872;-73
2023/05/19 07:13:55;;;;;;;0.70;0.70;;;;;;;;;;5038227;28;20466;-73
2023/05/19 07:16:26;;;;;;;0.70;0.70;;;;;;;;;;5023683;28;21005;-74
2023/05/19 07:18:53;;;;;;;0.70;0.60;;;;;;;;;;5024802;28;20929;-73
2023/05/19 07:21:22;;;;;;;0.70;0.70;;;;;;;;;;5025498;28;20470;-73
2023/05/19 07:23:49;;;;;;;0.70;0.60;;;;;;;;;;5027689;28;20456;-73
2023/05/19 07:26:18;;;;;;;0.70;0.60;;;;;;;;;;5029067;28;20549;-72
2023/05/19 07:28:46;;;;;;;0.70;0.70;;;;;;;;;;5018277;28;20451;-73
2023/05/19 07:31:13;;;;;;;0.70;0.60;;;;;;;;;;5021667;28;20530;-73
2023/05/19 07:33:42;;;;;;;0.70;0.67;;;;;;;;;;5029082;28;20911;-74
2023/05/19 07:36:09;;;;;;;0.70;0.70;;;;;;;;;;5022000;28;20912;-73
2023/05/19 07:38:36;;;;;;;1.03;0.97;;;;;;;;;;5023282;28;20978;-74
2023/05/19 07:41:03;;;;;;;0.70;0.70;;;;;;;;;;5021487;28;20819;-72
2023/05/19 07:43:31;;;;;;;0.70;0.70;;;;;;;;;;5019451;28;20984;-74
2023/05/19 07:45:58;;;;;;;0.80;0.80;;;;;;;;;;5019744;28;20468;-73
2023/05/19 07:48:26;;;;;;;0.77;0.70;;;;;;;;;;5020145;28;20451;-73
2023/05/19 07:50:53;;;;;;;0.77;0.77;;;;;;;;;;5018079;28;20801;-74
2023/05/19 07:53:21;;;;;;;0.80;0.80;;;;;;;;;;5017883;28;21082;-74
2023/05/19 07:55:49;;;;;;;0.70;0.70;;;;;;;;;;5021632;28;20923;-73
2023/05/19 07:58:16;;;;;;;0.70;0.60;;;;;;;;;;5053492;28;21366;-74
2023/05/19 08:00:44;;;;;;;0.80;0.70;;;;;;;;;;5028156;28;20487;-74
2023/05/19 08:03:12;;;;;;;0.80;0.70;;;;;;;;;;5025043;28;20445;-76
2023/05/19 08:05:39;;;;;;;0.77;0.70;;;;;;;;;;5022072;28;21164;-73
2023/05/19 08:08:06;;;;;;;0.70;0.60;;;;;;;;;;5018539;28;21033;-75
2023/05/19 08:10:33;;;;;;;0.70;0.60;;;;;;;;;;5025627;28;20474;-75
2023/05/19 08:13:00;;;;;;;0.80;0.70;;;;;;;;;;5024874;28;20459;-73
2023/05/19 08:15:27;;;;;;;0.80;0.73;;;;;;;;;;5024394;28;20446;-72
2023/05/19 08:17:56;;;;;;;0.80;0.70;;;;;;;;;;5031791;28;20860;-73
2023/05/19 08:20:23;;;;;;;0.80;0.77;;;;;;;;;;5026740;28;20446;-72
2023/05/19 08:22:50;;;;;;;0.80;0.80;;;;;;;;;;5025997;28;20457;-72
2023/05/19 08:25:18;;;;;;;0.80;0.80;;;;;;;;;;5023350;28;20472;-72
2023/05/19 08:27:46;;;;;;;0.87;0.87;;;;;;;;;;5023550;28;21167;-73
2023/05/19 08:30:13;;;;;;;0.80;0.70;;;;;;;;;;5023436;28;20551;-74
2023/05/19 08:32:39;;;;;;;0.80;0.70;;;;;;;;;;5019316;28;20978;-72
2023/05/19 08:35:08;;;;;;;1.03;0.93;;;;;;;;;;5025451;28;20438;-71
2023/05/19 08:37:36;;;;;;;0.70;0.70;;;;;;;;;;5022044;28;20561;-74
2023/05/19 08:40:04;;;;;;;0.80;0.80;;;;;;;;;;5013362;28;21319;-73
2023/05/19 08:42:32;;;;;;;0.80;0.70;;;;;;;;;;5021386;28;20438;-73
2023/05/19 08:44:58;;;;;;;0.80;0.80;;;;;;;;;;5012996;28;20475;-74
2023/05/19 08:47:28;;;;;;;0.90;0.90;;;;;;;;;;5018253;28;20442;-74
2023/05/19 08:50:02;;;;;;;0.80;0.80;;;;;;;;;;5025697;28;20504;-73
2023/05/19 08:52:33;;;;;;;0.70;0.60;;;;;;;;;;5041334;28;20798;-75
2023/05/19 08:55:04;;;;;;;0.80;0.80;;;;;;;;;;5021849;28;20436;-75
2023/05/19 08:57:31;;;;;;;0.80;0.80;;;;;;;;;;5048414;28;20491;-72
2023/05/19 08:59:59;;;;;;;0.70;0.63;;;;;;;;;;5013217;28;20523;-76
2023/05/19 09:02:27;;;;;;;0.70;0.70;;;;;;;;;;5016797;28;20449;-75
2023/05/19 09:04:56;;;;;;;0.73;0.73;;;;;;;;;;5020625;28;20502;-76
2023/05/19 09:07:24;;;;;;;0.90;0.90;;;;;;;;;;5029044;28;20491;-76
2023/05/19 09:09:53;;;;;;;0.73;0.70;;;;;;;;;;5026217;28;20469;-75
2023/05/19 09:12:21;;;;;;;1.20;1.07;;;;;;;;;;5027740;28;20440;-75
2023/05/19 09:14:48;;;;;;;0.80;0.80;;;;;;;;;;5044769;28;20472;-74
2023/05/19 09:17:16;;;;;;;0.80;0.73;;;;;;;;;;5030833;28;20472;-75
2023/05/19 09:19:46;;;;;;;0.70;0.70;;;;;;;;;;5022816;28;20483;-76
2023/05/19 09:22:15;;;;;;;0.70;0.70;;;;;;;;;;5046342;28;20480;-76
2023/05/19 09:24:42;;;;;;;0.70;0.70;;;;;;;;;;5024538;28;20537;-76
2023/05/19 09:27:13;;;;;;;3.23;2.50;;;;;;;;;;5022326;28;20503;-76
2023/05/19 09:29:40;;;;;;;2.30;2.10;;;;;;;;;;5020509;28;20882;-75
2023/05/19 09:32:07;;;;;;;0.70;0.70;;;;;;;;;;5026333;28;20469;-75
2023/05/19 09:34:38;;;;;;;0.70;0.70;;;;;;;;;;5024283;28;20479;-75
2023/05/19 09:37:05;;;;;;;0.90;0.90;;;;;;;;;;5034147;28;20564;-76
2023/05/19 09:39:32;;;;;;;0.80;0.80;;;;;;;;;;5034737;28;20459;-75
2023/05/19 09:42:03;;;;;;;0.70;0.70;;;;;;;;;;5036330;28;20448;-76
2023/05/19 09:44:33;;;;;;;0.80;0.73;;;;;;;;;;5065147;28;20497;-75
2023/05/19 09:47:02;;;;;;;0.70;0.70;;;;;;;;;;5033651;28;20467;-77
2023/05/19 09:49:29;;;;;;;0.70;0.60;;;;;;;;;;5039099;28;20416;-77
2023/05/19 09:51:59;;;;;;;0.80;0.80;;;;;;;;;;5063331;28;20531;-74
2023/05/19 09:54:30;;;;;;;0.80;0.80;;;;;;;;;;5032233;28;20471;-77
2023/05/19 09:56:58;;;;;;;0.80;0.80;;;;;;;;;;5015951;28;20440;-75
2023/05/19 09:59:25;;;;;;;0.70;0.60;;;;;;;;;;5027899;28;20443;-75
2023/05/19 10:01:57;;;;;;;0.80;0.80;;;;;;;;;;5009796;28;20465;-76
2023/05/19 10:04:26;;;;;;;0.70;0.60;;;;;;;;;;5019593;28;20927;-76
2023/05/19 10:06:54;;;;;;;0.80;0.80;;;;;;;;;;5020355;28;20490;-75
2023/05/19 10:09:26;;;;;;;0.80;0.67;;;;;;;;;;5028579;28;20447;-75
2023/05/19 10:11:54;;;;;;;0.70;0.70;;;;;;;;;;5024213;28;20883;-77
2023/05/19 10:14:23;;;;;;;0.73;0.70;;;;;;;;;;5026435;28;20983;-74
2023/05/19 10:16:50;;;;;;;0.70;0.60;;;;;;;;;;5023304;28;20443;-75
2023/05/19 10:19:21;;;;;;;0.80;0.70;;;;;;;;;;5019306;28;20438;-75
2023/05/19 10:21:49;;;;;;;0.80;0.73;;;;;;;;;;5023290;28;20423;-76
2023/05/19 10:24:17;;;;;;;0.70;0.70;;;;;;;;;;5004867;28;20447;-76
2023/05/19 10:26:48;;;;;;;3.13;1.90;;;;;;;;;;5017397;28;20572;-77
2023/05/19 10:29:17;;;;;;;0.70;0.70;;;;;;;;;;5018489;28;20419;-76
2023/05/19 10:31:46;;;;;;;2.70;2.50;;;;;;;;;;5019070;28;21013;-76
2023/05/19 10:34:24;;;;;;;0.70;0.70;;;;;;;;;;5028803;28;20452;-76
2023/05/19 10:36:54;;;;;;;0.70;0.60;;;;;;;;;;5026644;28;20469;-77
2023/05/19 10:39:24;;;;;;;0.70;0.70;;;;;;;;;;5022096;28;20803;-75
2023/05/19 10:41:55;;;;;;;1.13;0.80;;;;;;;;;;5021540;28;20504;-75
2023/05/19 10:44:30;;;;;;;0.70;0.60;;;;;;;;;;5025631;28;20441;-74
2023/05/19 10:46:57;;;;;;;0.70;0.67;;;;;;;;;;5025675;28;20737;-75
2023/05/19 10:49:26;;;;;;;0.70;0.70;;;;;;;;;;5060483;28;20525;-76
2023/05/19 10:51:55;;;;;;;0.70;0.60;;;;;;;;;;5019117;28;20476;-76
2023/05/19 10:54:39;;;;;;;0.70;0.67;;;;;;;;;;5057961;28;20428;-77
2023/05/19 10:57:07;;;;;;;0.70;0.67;;;;;;;;;;5015925;28;20474;-78
2023/05/19 10:59:35;;;;;;;0.70;0.60;;;;;;;;;;5015251;28;20449;-77
2023/05/19 11:02:02;;;;;;;0.70;0.60;;;;;;;;;;5014584;28;20441;-77
2023/05/19 11:04:46;;;;;;;0.70;0.67;;;;;;;;;;5054132;28;20452;-75
2023/05/19 11:07:18;;;;;;;0.90;0.80;;;;;;;;;;5018040;28;20518;-76
2023/05/19 11:09:48;;;;;;;0.70;0.60;;;;;;;;;;5007230;28;20449;-75
2023/05/19 11:12:18;;;;;;;0.70;0.60;;;;;;;;;;5025380;28;21007;-75
2023/05/19 11:14:46;;;;;;;0.70;0.60;;;;;;;;;;5028891;28;20440;-75
2023/05/19 11:17:14;;;;;;;1.20;1.10;;;;;;;;;;5023377;28;20473;-76
2023/05/19 11:19:52;;;;;;;0.70;0.60;;;;;;;;;;5022716;28;20560;-75
2023/05/19 11:22:21;;;;;;;0.70;0.60;;;;;;;;;;5020366;28;20479;-76
2023/05/19 11:24:51;;;;;;;0.70;0.60;;;;;;;;;;5015196;28;20820;-76
2023/05/19 11:27:19;;;;;;;0.70;0.60;;;;;;;;;;5021521;28;20517;-76
2023/05/19 11:29:47;;;;;;;0.70;0.60;;;;;;;;;;5013830;28;20468;-76
2023/05/19 11:32:18;;;;;;;0.80;0.70;;;;;;;;;;5029646;28;20465;-77
2023/05/19 11:34:47;;;;;;;0.90;0.80;;;;;;;;;;5015390;28;20540;-75
2023/05/19 11:37:15;;;;;;;0.70;0.60;;;;;;;;;;5023212;28;20451;-75
2023/05/19 11:39:44;;;;;;;0.70;0.60;;;;;;;;;;5023515;28;20514;-77
2023/05/19 11:42:10;;;;;;;0.70;0.70;;;;;;;;;;5015243;28;20542;-77
2023/05/19 11:44:39;;;;;;;0.70;0.60;;;;;;;;;;5024928;28;20447;-76
2023/05/19 11:47:07;;;;;;;0.80;0.70;;;;;;;;;;5022146;28;20425;-77
2023/05/19 11:49:34;;;;;;;0.70;0.60;;;;;;;;;;5023423;28;20469;-75
2023/05/19 11:52:02;;;;;;;0.70;0.60;;;;;;;;;;5022623;28;20530;-74
2023/05/19 11:54:31;;;;;;;1.10;1.00;;;;;;;;;;5017601;28;20472;-75
2023/05/19 11:57:00;;;;;;;0.70;0.60;;;;;;;;;;5028900;28;20436;-75
2023/05/19 11:59:31;;;;;;;0.80;0.80;;;;;;;;;;5024013;28;20445;-76
2023/05/19 12:02:02;;;;;;;0.70;0.70;;;;;;;;;;5025939;28;20446;-76
2023/05/19 12:04:31;;;;;;;0.80;0.70;;;;;;;;;;5027661;28;20456;-76
2023/05/19 12:06:58;;;;;;;1.00;0.90;;;;;;;;;;5009544;28;20457;-76
2023/05/19 12:09:28;;;;;;;0.80;0.70;;;;;;;;;;5018324;28;20433;-78
2023/05/19 12:11:59;;;;;;;0.70;0.60;;;;;;;;;;5024111;28;20455;-77
2023/05/19 12:14:28;;;;;;;0.70;0.50;;;;;;;;;;5027560;28;20540;-75
2023/05/19 12:16:56;;;;;;;0.70;0.60;;;;;;;;;;5015149;28;20453;-74
2023/05/19 12:19:24;;;;;;;1.03;0.93;;;;;;;;;;5025731;28;20532;-75
2023/05/19 12:21:51;;;;;;;0.93;0.90;;;;;;;;;;5024967;28;20469;-76
2023/05/19 12:24:20;;;;;;;0.70;0.60;;;;;;;;;;5056899;28;20444;-76
2023/05/19 12:26:49;;;;;;;0.70;0.60;;;;;;;;;;5024540;28;20516;-76
2023/05/19 12:29:19;;;;;;;0.80;0.60;;;;;;;;;;5006469;28;20454;-76
2023/05/19 12:31:48;;;;;;;0.80;0.63;;;;;;;;;;5053604;28;20422;-76
2023/05/19 12:34:14;;;;;;;0.70;0.50;;;;;;;;;;5023616;28;20452;-77
2023/05/19 12:36:44;;;;;;;0.70;0.60;;;;;;;;;;5025185;28;20457;-76
2023/05/19 12:39:19;;;;;;;0.70;0.50;;;;;;;;;;5019680;28;20470;-75
2023/05/19 12:41:50;;;;;;;4.10;1.00;;;;;;;;;;5023428;28;20945;-76
2023/05/19 12:44:20;;;;;;;1.00;0.80;;;;;;;;;;5023839;28;20463;-76
2023/05/19 12:46:50;;;;;;;0.90;0.80;;;;;;;;;;5024943;28;20464;-75
2023/05/19 12:49:17;;;;;;;1.00;0.60;;;;;;;;;;5035480;28;20556;-76
2023/05/19 12:51:50;;;;;;;0.70;0.50;;;;;;;;;;5024239;28;20479;-77
2023/05/19 12:54:18;;;;;;;0.80;0.80;;;;;;;;;;5024640;28;20433;-73
2023/05/19 12:56:48;;;;;;;0.70;0.50;;;;;;;;;;5026169;28;20910;-77
2023/05/19 12:59:21;;;;;;;0.70;0.60;;;;;;;;;;5013838;28;20473;-76
2023/05/19 13:02:05;;;;;;;0.70;0.60;;;;;;;;;;5028310;28;20456;-76
2023/05/19 13:04:32;;;;;;;0.70;0.50;;;;;;;;;;5025249;28;20448;-75
2023/05/19 13:06:59;;;;;;;0.70;0.50;;;;;;;;;;5024246;28;20473;-76
2023/05/19 13:09:27;;;;;;;0.77;0.67;;;;;;;;;;5030708;28;20502;-75
2023/05/19 13:11:54;;;;;;;0.70;0.60;;;;;;;;;;5026321;28;20536;-76
2023/05/19 13:14:23;;;;;;;0.80;0.60;;;;;;;;;;5053889;28;20444;-76
2023/05/19 13:16:50;;;;;;;0.80;0.60;;;;;;;;;;5012802;28;20438;-75
2023/05/19 13:19:17;;;;;;;0.70;0.60;;;;;;;;;;5020141;28;20531;-76
2023/05/19 13:21:51;;;;;;;0.70;0.60;;;;;;;;;;5021990;28;20444;-76
2023/05/19 13:24:18;;;;;;;0.70;0.60;;;;;;;;;;5023100;28;20899;-76
2023/05/19 13:26:46;;;;;;;0.80;0.70;;;;;;;;;;5022824;28;20479;-76
2023/05/19 13:29:15;;;;;;;0.70;0.50;;;;;;;;;;5032179;28;20451;-76
2023/05/19 13:31:43;;;;;;;1.00;0.80;;;;;;;;;;5019458;28;20473;-75
2023/05/19 13:34:12;;;;;;;1.13;0.67;;;;;;;;;;5031093;28;20487;-75
2023/05/19 13:36:39;;;;;;;0.70;0.50;;;;;;;;;;5024348;28;20964;-75
2023/05/19 13:39:06;;;;;;;0.73;0.60;;;;;;;;;;5024132;28;20469;-75
2023/05/19 13:41:33;;;;;;;0.80;0.50;;;;;;;;;;5021914;28;20449;-76
2023/05/19 13:43:59;;;;;;;0.80;0.50;;;;;;;;;;5027967;28;20448;-75
2023/05/19 13:46:27;;;;;;;0.70;0.50;;;;;;;;;;5023074;28;20514;-75
2023/05/19 13:49:11;;;;;;;0.97;0.80;;;;;;;;;;5019284;28;20430;-76
2023/05/19 13:51:41;;;;;;;1.00;0.90;;;;;;;;;;5014257;28;20537;-75
2023/05/19 13:54:08;;;;;;;0.80;0.50;;;;;;;;;;5020832;28;20429;-76
2023/05/19 13:56:35;;;;;;;0.90;0.70;;;;;;;;;;5014331;28;20625;-75
2023/05/19 13:59:02;;;;;;;1.03;0.90;;;;;;;;;;5021592;28;20485;-74
2023/05/19 14:01:31;;;;;;;0.80;0.60;;;;;;;;;;5026111;28;20449;-73
2023/05/19 14:04:00;;;;;;;0.90;0.60;;;;;;;;;;5022718;28;20492;-76
2023/05/19 14:06:29;;;;;;;0.90;0.60;;;;;;;;;;5020753;28;20577;-77
2023/05/19 14:08:57;;;;;;;0.80;0.50;;;;;;;;;;5017210;28;20479;-75
2023/05/19 14:11:25;;;;;;;0.80;0.50;;;;;;;;;;5023192;28;20798;-75
2023/05/19 14:13:52;;;;;;;0.80;0.60;;;;;;;;;;5021579;28;20470;-75
2023/05/19 14:16:20;;;;;;;0.80;0.60;;;;;;;;;;5015429;28;20531;-75
2023/05/19 14:18:47;;;;;;;0.70;0.50;;;;;;;;;;5048603;28;20472;-76
2023/05/19 14:21:14;;;;;;;0.80;0.70;;;;;;;;;;5022764;28;20443;-76
2023/05/19 14:23:43;;;;;;;1.30;1.20;;;;;;;;;;5025408;28;20441;-74
2023/05/19 14:26:11;;;;;;;0.70;0.50;;;;;;;;;;5018825;28;20433;-75
2023/05/19 14:28:38;;;;;;;0.70;0.60;;;;;;;;;;5024787;28;20974;-75
2023/05/19 14:31:05;;;;;;;0.70;0.50;;;;;;;;;;5023999;28;20478;-75
2023/05/19 14:33:32;;;;;;;0.70;0.50;;;;;;;;;;5035772;28;20462;-76
2023/05/19 14:36:01;;;;;;;0.70;0.50;;;;;;;;;;5014975;28;20465;-75
2023/05/19 14:38:28;;;;;;;0.70;0.50;;;;;;;;;;5025950;28;20474;-74
2023/05/19 14:40:56;;;;;;;0.90;0.80;;;;;;;;;;5022411;28;20449;-75
2023/05/19 14:43:23;;;;;;;0.73;0.57;;;;;;;;;;5016697;28;20964;-78
2023/05/19 14:45:50;;;;;;;0.70;0.50;;;;;;;;;;5026437;28;20879;-76
2023/05/19 14:48:17;;;;;;;0.80;0.60;;;;;;;;;;5025881;28;20441;-76
2023/05/19 14:50:46;;;;;;;1.30;0.90;;;;;;;;;;5030706;28;20448;-76
2023/05/19 14:53:13;;;;;;;0.80;0.60;;;;;;;;;;5024322;28;20489;-76